Time;durP1;ratioP1;P1;durP2;ratioP2;P2;SDS_P1;SDS_P2;PMS_P1;PMS_P2;Temp;Humidity;BMP_temperature;BMP_pressure;BME280_temperature;BME280_humidity;BME280_pressure;Samples;Min_cycle;Max_cycle;Signal;HPM_P1;HPM_P2
2022/12/13 00:01:16;;;;;;;66.97;29.20;;;-3.00;99.90;;;;;;5093317;28;20055;-85
2022/12/13 00:04:05;;;;;;;68.88;29.40;;;-3.00;99.90;;;;;;5080000;28;20082;-78
2022/12/13 00:06:52;;;;;;;62.45;28.83;;;-3.10;99.90;;;;;;5074297;28;20455;-84
2022/12/13 00:09:41;;;;;;;61.92;27.65;;;-3.10;99.90;;;;;;5092487;28;20044;-76
2022/12/13 00:12:27;;;;;;;64.32;28.38;;;-3.20;99.90;;;;;;5095005;28;20086;-81
2022/12/13 00:15:13;;;;;;;71.18;30.75;;;-3.10;99.90;;;;;;5074273;28;20143;-83
2022/12/13 00:17:59;;;;;;;71.28;29.30;;;-3.10;99.90;;;;;;5075447;28;20072;-84
2022/12/13 00:20:46;;;;;;;64.88;27.85;;;-3.00;99.90;;;;;;5080701;28;20108;-81
2022/12/13 00:23:32;;;;;;;81.22;32.00;;;-3.10;99.90;;;;;;5074317;28;20471;-77
2022/12/13 00:26:38;;;;;;;71.03;29.67;;;-3.10;99.90;;;;;;5074670;28;20517;-82
2022/12/13 00:29:24;;;;;;;72.97;31.45;;;-3.00;99.90;;;;;;5074862;28;20044;-78
2022/12/13 00:32:10;;;;;;;67.30;30.67;;;-3.10;99.90;;;;;;5073018;28;20533;-83
2022/12/13 00:34:56;;;;;;;61.33;28.08;;;-3.10;99.90;;;;;;5092918;28;20174;-81
2022/12/13 00:37:42;;;;;;;70.47;30.42;;;-3.10;99.90;;;;;;5074841;28;20052;-83
2022/12/13 00:40:29;;;;;;;63.40;28.48;;;-3.10;99.90;;;;;;5063288;28;20075;-82
2022/12/13 00:43:15;;;;;;;74.82;30.85;;;-3.20;99.90;;;;;;5091639;28;20048;-77
2022/12/13 00:46:01;;;;;;;59.83;28.27;;;-3.10;99.90;;;;;;5077272;28;20044;-77
2022/12/13 00:48:54;;;;;;;66.85;29.75;;;-3.10;99.90;;;;;;5091934;28;20135;-78
2022/12/13 00:51:40;;;;;;;57.25;27.63;;;-3.20;99.90;;;;;;5092420;28;20101;-77
2022/12/13 00:54:26;;;;;;;77.40;30.90;;;-3.20;99.90;;;;;;5073680;28;20059;-83
2022/12/13 00:57:12;;;;;;;67.47;27.13;;;-3.30;99.90;;;;;;5096401;28;20059;-76
2022/12/13 00:59:59;;;;;;;60.38;25.00;;;-3.30;99.90;;;;;;5073729;28;20056;-76
2022/12/13 01:02:45;;;;;;;68.22;28.95;;;-3.40;99.90;;;;;;5073411;28;20446;-80
2022/12/13 01:05:34;;;;;;;65.97;28.10;;;-3.30;99.90;;;;;;5090500;28;20044;-77
2022/12/13 01:08:20;;;;;;;56.75;27.48;;;-3.30;99.90;;;;;;5090871;28;20426;-79
2022/12/13 01:11:07;;;;;;;62.33;28.80;;;-3.30;99.90;;;;;;5076768;28;20073;-80
2022/12/13 01:13:53;;;;;;;66.13;28.63;;;-3.20;99.90;;;;;;5074602;28;20142;-79
2022/12/13 01:16:39;;;;;;;64.53;29.17;;;-3.30;99.90;;;;;;5075655;28;20052;-78
2022/12/13 01:19:26;;;;;;;68.40;31.35;;;-3.30;99.90;;;;;;5073026;28;20043;-77
2022/12/13 01:22:13;;;;;;;61.45;27.92;;;-3.30;99.90;;;;;;5091042;28;20055;-78
2022/12/13 01:24:59;;;;;;;59.60;28.60;;;-3.30;99.90;;;;;;5090962;28;20400;-78
2022/12/13 01:27:45;;;;;;;55.08;26.20;;;-3.20;99.90;;;;;;5059403;28;20135;-83
2022/12/13 01:30:31;;;;;;;61.75;29.02;;;-3.30;99.90;;;;;;5073086;28;20484;-77
2022/12/13 01:33:17;;;;;;;70.35;29.83;;;-3.30;99.90;;;;;;5076370;28;20468;-76
2022/12/13 01:36:06;;;;;;;58.17;28.98;;;-3.30;99.90;;;;;;5073904;28;20101;-75
2022/12/13 01:38:52;;;;;;;67.25;28.10;;;-3.30;99.90;;;;;;5090938;28;20044;-77
2022/12/13 01:41:39;;;;;;;57.20;27.50;;;-3.30;99.90;;;;;;5072522;28;20064;-78
2022/12/13 01:45:01;;;;;;;67.00;28.05;;;-3.30;99.90;;;;;;5072607;28;20044;-84
2022/12/13 01:48:01;;;;;;;60.28;30.40;;;-3.30;99.90;;;;;;5076411;28;20066;-76
2022/12/13 01:50:51;;;;;;;53.70;27.27;;;-3.30;99.90;;;;;;5071347;28;20101;-83
2022/12/13 01:53:41;;;;;;;60.90;25.92;;;-3.30;99.90;;;;;;5078835;28;20051;-81
2022/12/13 01:56:33;;;;;;;59.67;26.65;;;-3.40;99.90;;;;;;5090378;28;20132;-77
2022/12/13 01:59:20;;;;;;;62.72;26.70;;;-3.40;99.90;;;;;;5055206;28;20052;-81
2022/12/13 02:02:08;;;;;;;67.93;32.42;;;-3.40;99.90;;;;;;5070267;28;20091;-77
2022/12/13 02:05:03;;;;;;;59.05;27.35;;;-3.40;99.90;;;;;;5087961;28;20097;-77
2022/12/13 02:07:50;;;;;;;66.07;28.30;;;-3.40;99.90;;;;;;5072001;28;20530;-84
2022/12/13 02:10:38;;;;;;;75.28;28.95;;;-3.40;99.90;;;;;;5077388;28;20515;-78
2022/12/13 02:13:24;;;;;;;65.38;27.50;;;-3.40;99.90;;;;;;5092453;28;20054;-84
2022/12/13 02:16:25;;;;;;;61.60;27.08;;;-3.40;99.90;;;;;;5076582;28;20553;-84
2022/12/13 02:19:35;;;;;;;68.22;25.40;;;-3.40;99.90;;;;;;5061997;28;20052;-78
2022/12/13 02:22:46;;;;;;;68.97;28.20;;;-3.50;99.90;;;;;;5093468;28;20083;-80
2022/12/13 02:25:41;;;;;;;59.42;24.00;;;-3.50;99.90;;;;;;5075184;28;20062;-79
2022/12/13 02:28:36;;;;;;;75.97;24.30;;;-3.50;99.90;;;;;;5084018;28;20044;-82
2022/12/13 02:31:31;;;;;;;57.42;25.80;;;-3.60;99.90;;;;;;5075621;28;20098;-83
2022/12/13 02:34:23;;;;;;;51.03;24.73;;;-3.50;99.90;;;;;;5062468;28;20109;-83
2022/12/13 02:37:09;;;;;;;61.25;26.13;;;-3.60;99.90;;;;;;5093923;28;20048;-79
2022/12/13 02:40:21;;;;;;;68.05;29.25;;;-3.50;99.90;;;;;;5076929;28;20476;-78
2022/12/13 02:43:33;;;;;;;63.65;26.70;;;-3.50;99.90;;;;;;5075401;28;20047;-80
2022/12/13 02:46:22;;;;;;;68.38;27.15;;;-3.50;99.90;;;;;;5075519;28;20148;-84
2022/12/13 02:49:10;;;;;;;57.60;25.45;;;-3.50;99.90;;;;;;5083809;28;20087;-77
2022/12/13 02:51:58;;;;;;;55.83;27.77;;;-3.50;99.90;;;;;;5076068;28;20481;-83
2022/12/13 02:54:44;;;;;;;55.97;25.33;;;-3.50;99.90;;;;;;5075406;28;20048;-80
2022/12/13 02:57:37;;;;;;;56.60;27.35;;;-3.60;99.90;;;;;;5076011;28;20048;-80
2022/12/13 03:00:49;;;;;;;58.25;24.52;;;-3.60;99.90;;;;;;5094378;28;20052;-78
2022/12/13 03:03:47;;;;;;;50.83;22.35;;;-3.60;99.90;;;;;;5062665;28;20135;-80
2022/12/13 03:06:39;;;;;;;54.75;24.67;;;-3.70;99.90;;;;;;5080568;28;20055;-76
2022/12/13 03:09:54;;;;;;;53.28;26.02;;;-3.60;99.90;;;;;;5082203;28;20093;-83
2022/12/13 03:16:21;;;;;;;59.97;25.10;;;-3.60;99.90;;;;;;5092638;28;20411;-82
2022/12/13 03:19:10;;;;;;;52.97;24.05;;;-3.60;99.90;;;;;;5078658;28;20052;-82
2022/12/13 03:21:56;;;;;;;63.28;29.95;;;-3.60;99.90;;;;;;5092974;28;20044;-82
2022/12/13 03:24:42;;;;;;;69.10;27.55;;;-3.60;99.90;;;;;;5075056;28;20105;-81
2022/12/13 03:27:29;;;;;;;64.63;27.85;;;-3.50;99.90;;;;;;5079957;28;20063;-78
2022/12/13 03:30:15;;;;;;;66.65;27.63;;;-3.50;99.90;;;;;;5061262;28;20385;-78
2022/12/13 03:33:01;;;;;;;63.30;28.27;;;-3.40;99.90;;;;;;5061487;28;20155;-78
2022/12/13 03:35:48;;;;;;;62.10;28.42;;;-3.40;99.90;;;;;;5074974;28;20097;-81
2022/12/13 03:38:34;;;;;;;64.90;28.52;;;-3.40;99.90;;;;;;5093282;28;20407;-78
2022/12/13 03:41:30;;;;;;;67.22;28.00;;;-3.40;99.90;;;;;;5075239;28;20055;-81
2022/12/13 03:44:16;;;;;;;61.83;26.88;;;-3.30;99.90;;;;;;5079002;28;20048;-78
2022/12/13 03:47:02;;;;;;;64.25;28.10;;;-3.20;99.90;;;;;;5083982;28;20072;-80
2022/12/13 03:49:48;;;;;;;69.50;28.60;;;-3.20;99.90;;;;;;5060392;28;20052;-83
2022/12/13 03:52:35;;;;;;;71.70;30.73;;;-3.20;99.90;;;;;;5074442;28;20055;-80
2022/12/13 03:55:21;;;;;;;63.10;28.58;;;-3.20;99.90;;;;;;5074946;28;20044;-80
2022/12/13 03:58:07;;;;;;;64.13;27.77;;;-3.20;99.90;;;;;;5077483;28;20056;-82
2022/12/13 04:00:53;;;;;;;61.72;28.65;;;-3.20;99.90;;;;;;5080998;28;20052;-77
2022/12/13 04:03:41;;;;;;;58.15;26.30;;;-3.30;99.90;;;;;;5061610;28;20044;-81
2022/12/13 04:06:27;;;;;;;58.95;27.33;;;-3.30;99.90;;;;;;5074965;28;20052;-80
2022/12/13 04:09:13;;;;;;;59.33;27.23;;;-3.40;99.90;;;;;;5092450;28;20048;-78
2022/12/13 04:15:04;;;;;;;65.82;28.23;;;-3.30;99.90;;;;;;5073253;28;20051;-79
2022/12/13 04:17:51;;;;;;;57.22;26.70;;;-3.40;99.90;;;;;;5075036;28;20062;-80
2022/12/13 04:20:37;;;;;;;61.85;28.33;;;-3.30;99.90;;;;;;5097268;28;20140;-77
2022/12/13 04:23:23;;;;;;;66.10;29.90;;;-3.30;99.90;;;;;;5078235;28;20081;-77
2022/12/13 04:26:09;;;;;;;67.85;29.17;;;-3.20;99.90;;;;;;5093105;28;20072;-77
2022/12/13 04:28:55;;;;;;;63.42;28.23;;;-3.20;99.90;;;;;;5073150;28;20059;-78
2022/12/13 04:31:42;;;;;;;55.28;26.45;;;-3.10;99.90;;;;;;5059148;28;20052;-80
2022/12/13 04:34:28;;;;;;;59.20;26.38;;;-3.20;99.90;;;;;;5072994;28;20048;-80
2022/12/13 04:37:14;;;;;;;60.03;25.85;;;-3.20;99.90;;;;;;5060686;28;20052;-81
2022/12/13 04:40:00;;;;;;;55.47;25.45;;;-3.20;99.90;;;;;;5078197;28;20075;-83
2022/12/13 04:42:46;;;;;;;53.30;25.50;;;-3.30;99.90;;;;;;5098501;28;20051;-81
2022/12/13 04:45:32;;;;;;;50.65;24.75;;;-3.40;99.90;;;;;;5091764;28;20127;-79
2022/12/13 04:48:18;;;;;;;58.10;24.17;;;-3.40;99.90;;;;;;5091822;28;20470;-84
2022/12/13 04:51:04;;;;;;;57.13;26.27;;;-3.40;99.90;;;;;;5078605;28;20132;-78
2022/12/13 04:53:51;;;;;;;59.90;27.95;;;-3.40;99.90;;;;;;5073645;28;20044;-80
2022/12/13 04:56:37;;;;;;;59.30;28.08;;;-3.40;99.90;;;;;;5091825;28;20348;-81
2022/12/13 04:59:23;;;;;;;60.28;27.67;;;-3.30;99.90;;;;;;5091970;28;20541;-85
2022/12/13 05:02:09;;;;;;;59.10;25.77;;;-3.30;99.90;;;;;;5076326;28;20044;-84
2022/12/13 05:04:56;;;;;;;48.08;25.45;;;-3.30;99.90;;;;;;5097325;28;20052;-80
2022/12/13 05:07:42;;;;;;;53.30;23.08;;;-3.30;99.90;;;;;;5060245;28;20052;-79
2022/12/13 05:10:28;;;;;;;61.47;26.80;;;-3.40;99.90;;;;;;5073357;28;20078;-83
2022/12/13 05:13:16;;;;;;;60.15;25.27;;;-3.50;99.90;;;;;;5091431;28;20051;-81
2022/12/13 05:16:05;;;;;;;54.90;23.88;;;-3.50;99.90;;;;;;5072827;28;20102;-79
2022/12/13 05:18:51;;;;;;;50.83;24.33;;;-3.60;99.90;;;;;;5090256;28;20137;-84
2022/12/13 05:21:37;;;;;;;47.33;23.60;;;-3.60;99.90;;;;;;5094112;28;20431;-81
2022/12/13 05:24:23;;;;;;;46.75;23.13;;;-3.60;99.90;;;;;;5096614;28;20526;-83
2022/12/13 05:27:10;;;;;;;52.03;24.60;;;-3.70;99.90;;;;;;5058850;28;20078;-78
2022/12/13 05:29:56;;;;;;;49.30;23.40;;;-3.70;99.90;;;;;;5090022;28;20052;-81
2022/12/13 05:32:43;;;;;;;48.45;25.55;;;-3.70;99.90;;;;;;5071970;28;20055;-79
2022/12/13 05:35:29;;;;;;;54.10;25.17;;;-3.70;99.90;;;;;;5072958;28;20527;-83
2022/12/13 05:38:15;;;;;;;66.35;25.27;;;-3.70;99.90;;;;;;5093934;28;20059;-84
2022/12/13 05:41:01;;;;;;;53.83;25.70;;;-3.70;99.90;;;;;;5072580;28;20075;-81
2022/12/13 05:43:47;;;;;;;42.08;21.45;;;-3.70;99.90;;;;;;5078398;28;20043;-78
2022/12/13 05:46:34;;;;;;;51.15;24.85;;;-3.80;99.90;;;;;;5076568;28;20135;-81
2022/12/13 05:49:20;;;;;;;52.70;23.30;;;-3.80;99.90;;;;;;5090349;28;20044;-83
2022/12/13 05:52:13;;;;;;;51.88;24.73;;;-3.80;99.90;;;;;;5081483;28;20496;-82
2022/12/13 05:55:00;;;;;;;54.55;23.80;;;-3.80;99.90;;;;;;5091706;28;20051;-78
2022/12/13 05:57:46;;;;;;;51.30;22.73;;;-3.80;99.90;;;;;;5074923;28;20048;-78
2022/12/13 06:00:32;;;;;;;51.30;22.20;;;-3.80;99.90;;;;;;5072280;28;20052;-84
2022/12/13 06:03:18;;;;;;;56.38;25.30;;;-3.90;99.90;;;;;;5071910;28;20511;-82
2022/12/13 06:06:06;;;;;;;58.42;27.17;;;-3.90;99.90;;;;;;5080060;28;20048;-84
2022/12/13 06:08:52;;;;;;;48.38;22.15;;;-3.90;99.90;;;;;;5071136;28;20064;-83
2022/12/13 06:11:38;;;;;;;46.67;22.30;;;-3.90;99.90;;;;;;5091788;28;20106;-79
2022/12/13 06:14:24;;;;;;;63.65;29.15;;;-4.00;99.90;;;;;;5057860;28;20059;-81
2022/12/13 06:17:10;;;;;;;53.42;24.38;;;-3.90;99.90;;;;;;5072106;28;20040;-80
2022/12/13 06:19:56;;;;;;;53.03;24.63;;;-4.00;99.90;;;;;;5088696;28;20058;-80
2022/12/13 06:22:43;;;;;;;50.47;23.88;;;-4.00;99.90;;;;;;5071570;28;20120;-83
2022/12/13 06:25:29;;;;;;;44.63;23.10;;;-4.00;99.90;;;;;;5075532;28;20406;-81
2022/12/13 06:28:15;;;;;;;52.72;23.67;;;-4.00;99.90;;;;;;5058924;28;20059;-83
2022/12/13 06:31:03;;;;;;;51.05;23.70;;;-4.00;99.90;;;;;;5089752;28;20252;-77
2022/12/13 06:33:50;;;;;;;54.28;24.40;;;-4.00;99.90;;;;;;5072024;28;20495;-83
2022/12/13 06:36:36;;;;;;;65.25;28.90;;;-4.00;99.90;;;;;;5070807;28;20052;-83
2022/12/13 06:39:22;;;;;;;55.33;26.63;;;-3.90;99.90;;;;;;5074906;28;20047;-84
2022/12/13 06:42:15;;;;;;;54.45;27.67;;;-3.90;99.90;;;;;;5094233;28;20094;-80
2022/12/13 06:45:01;;;;;;;57.95;25.50;;;-3.80;99.90;;;;;;5071475;28;20125;-77
2022/12/13 06:47:47;;;;;;;60.70;28.63;;;-3.70;99.90;;;;;;5071291;28;20067;-80
2022/12/13 06:50:33;;;;;;;60.08;29.90;;;-3.60;99.90;;;;;;5074175;28;20245;-80
2022/12/13 06:53:20;;;;;;;62.67;28.38;;;-3.60;99.90;;;;;;5091896;28;20079;-83
2022/12/13 06:56:08;;;;;;;61.95;30.10;;;-3.60;99.90;;;;;;5059260;28;20132;-77
2022/12/13 06:58:55;;;;;;;56.22;28.40;;;-3.50;99.90;;;;;;5074924;28;20059;-77
2022/12/13 07:01:41;;;;;;;61.58;29.15;;;-3.60;99.90;;;;;;5079823;28;20040;-81
2022/12/13 07:04:27;;;;;;;59.67;29.15;;;-3.50;99.90;;;;;;5074181;28;20138;-82
2022/12/13 07:07:14;;;;;;;65.85;29.65;;;-3.50;99.90;;;;;;5092451;28;20044;-85
2022/12/13 07:10:00;;;;;;;58.53;28.10;;;-3.50;99.90;;;;;;5094707;28;20048;-81
2022/12/13 07:12:47;;;;;;;59.55;29.48;;;-3.50;99.90;;;;;;5092886;28;20063;-79
2022/12/13 07:15:33;;;;;;;52.80;26.55;;;-3.50;99.90;;;;;;5092598;28;20047;-84
2022/12/13 07:18:19;;;;;;;54.88;27.33;;;-3.50;99.90;;;;;;5083263;28;20063;-81
2022/12/13 07:21:11;;;;;;;54.70;25.35;;;-3.50;99.90;;;;;;5092715;28;20079;-80
2022/12/13 07:23:57;;;;;;;50.05;26.08;;;-3.50;99.90;;;;;;5093304;28;20144;-83
2022/12/13 07:26:43;;;;;;;51.22;25.85;;;-3.60;99.90;;;;;;5061852;28;20515;-78
2022/12/13 07:29:29;;;;;;;53.65;23.85;;;-3.70;99.90;;;;;;5060367;28;20075;-79
2022/12/13 07:32:15;;;;;;;54.78;26.10;;;-3.70;99.90;;;;;;5066778;28;20060;-79
2022/12/13 07:35:01;;;;;;;52.28;25.00;;;-3.70;99.90;;;;;;5092300;28;20545;-82
2022/12/13 07:37:48;;;;;;;62.63;29.13;;;-3.70;99.90;;;;;;5091862;28;20084;-78
2022/12/13 07:40:35;;;;;;;58.28;28.20;;;-3.60;99.90;;;;;;5074526;28;20078;-85
2022/12/13 07:43:21;;;;;;;63.58;28.92;;;-3.50;99.90;;;;;;5092347;28;20048;-84
2022/12/13 07:46:10;;;;;;;61.42;28.35;;;-3.40;99.90;;;;;;5060382;28;20052;-84
2022/12/13 07:48:56;;;;;;;63.88;29.98;;;-3.30;99.90;;;;;;5079017;28;20067;-78
2022/12/13 07:51:42;;;;;;;59.70;27.98;;;-3.30;99.90;;;;;;5073850;28;20499;-78
2022/12/13 07:54:28;;;;;;;62.40;30.13;;;-3.40;99.90;;;;;;5073410;28;20052;-83
2022/12/13 07:57:15;;;;;;;61.92;29.50;;;-3.30;99.90;;;;;;5078859;28;20072;-84
2022/12/13 08:00:02;;;;;;;60.25;29.30;;;-3.30;99.90;;;;;;5074641;28;20048;-78
2022/12/13 08:02:48;;;;;;;60.25;29.95;;;-3.30;99.90;;;;;;5075600;28;20056;-77
2022/12/13 08:05:35;;;;;;;53.95;26.98;;;-3.20;99.90;;;;;;5078439;28;20086;-81
2022/12/13 08:08:22;;;;;;;50.05;26.90;;;-3.30;99.90;;;;;;5094349;28;20113;-78
2022/12/13 08:11:10;;;;;;;50.65;25.30;;;-3.30;99.90;;;;;;5091387;28;20051;-84
2022/12/13 08:13:56;;;;;;;52.65;25.80;;;-3.30;99.90;;;;;;5076729;28;20115;-81
2022/12/13 08:16:43;;;;;;;53.47;24.95;;;-3.30;99.90;;;;;;5078364;28;20052;-79
2022/12/13 08:19:29;;;;;;;58.92;26.25;;;-3.30;99.90;;;;;;5091465;28;20052;-81
2022/12/13 08:22:15;;;;;;;53.38;25.67;;;-3.30;99.90;;;;;;5073532;28;20124;-79
2022/12/13 08:25:01;;;;;;;56.78;26.88;;;-3.30;99.90;;;;;;5072793;28;20063;-85
2022/12/13 08:27:47;;;;;;;50.22;25.17;;;-3.20;99.90;;;;;;5094140;28;20044;-85
2022/12/13 08:30:34;;;;;;;51.63;24.80;;;-3.20;99.90;;;;;;5074655;28;20173;-78
2022/12/13 08:33:20;;;;;;;59.80;27.75;;;-3.20;99.90;;;;;;5091630;28;20048;-78
2022/12/13 08:36:11;;;;;;;54.10;25.90;;;-3.10;99.90;;;;;;5090916;28;20052;-80
2022/12/13 08:39:01;;;;;;;57.63;27.90;;;-3.00;99.90;;;;;;5073098;28;20564;-78
2022/12/13 08:41:48;;;;;;;54.67;27.83;;;-3.00;99.90;;;;;;5092094;28;20056;-78
2022/12/13 08:44:34;;;;;;;60.15;28.10;;;-2.90;99.90;;;;;;5092514;28;20047;-79
2022/12/13 08:47:23;;;;;;;55.60;27.00;;;-2.80;99.90;;;;;;5061124;28;20044;-80
2022/12/13 08:50:09;;;;;;;54.92;27.30;;;-2.70;99.90;;;;;;5073243;28;20047;-79
2022/12/13 08:52:56;;;;;;;59.63;30.35;;;-2.70;99.90;;;;;;5072809;28;20048;-81
2022/12/13 08:55:42;;;;;;;62.55;29.77;;;-2.60;99.90;;;;;;5071984;28;20571;-84
2022/12/13 08:58:29;;;;;;;60.90;30.48;;;-2.50;99.90;;;;;;5089568;28;20131;-83
2022/12/13 09:01:15;;;;;;;60.38;26.92;;;-2.50;99.90;;;;;;5091751;28;20048;-83
2022/12/13 09:04:02;;;;;;;58.10;28.20;;;-2.40;99.90;;;;;;5091527;28;20040;-84
2022/12/13 09:06:48;;;;;;;60.97;28.00;;;-2.40;99.90;;;;;;5073982;28;20048;-81
2022/12/13 09:09:34;;;;;;;56.15;28.20;;;-2.30;99.90;;;;;;5076072;28;20093;-83
2022/12/13 09:12:20;;;;;;;57.88;26.65;;;-2.20;99.90;;;;;;5091209;28;20043;-85
2022/12/13 09:15:07;;;;;;;53.20;30.48;;;-2.10;99.90;;;;;;5083982;28;20515;-86
2022/12/13 09:17:53;;;;;;;61.70;30.65;;;-2.00;99.90;;;;;;5073539;28;20051;-77
2022/12/13 09:20:41;;;;;;;57.40;27.73;;;-1.90;99.90;;;;;;5077753;28;20055;-79
2022/12/13 09:23:27;;;;;;;61.47;30.15;;;-1.70;99.90;;;;;;5090973;28;20048;-80
2022/12/13 09:26:15;;;;;;;56.13;28.70;;;-1.60;99.90;;;;;;5072879;28;20098;-79
2022/12/13 09:29:01;;;;;;;60.22;30.13;;;-1.60;99.90;;;;;;5091257;28;20854;-85
2022/12/13 09:31:47;;;;;;;58.05;29.67;;;-1.40;99.90;;;;;;5057800;28;20400;-85
2022/12/13 09:34:33;;;;;;;55.17;30.35;;;-1.30;99.90;;;;;;5092087;28;20087;-79
2022/12/13 09:37:19;;;;;;;56.72;29.30;;;-1.10;99.90;;;;;;5093747;28;20044;-85
2022/12/13 09:40:06;;;;;;;54.05;27.80;;;-1.00;99.90;;;;;;5091137;28;20097;-82
2022/12/13 09:42:56;;;;;;;59.70;28.38;;;-0.90;99.90;;;;;;5090536;28;20459;-79
2022/12/13 09:45:45;;;;;;;54.97;26.63;;;-0.80;99.90;;;;;;5090706;28;20067;-82
2022/12/13 09:48:31;;;;;;;56.72;29.13;;;-0.70;99.90;;;;;;5072639;28;20055;-81
2022/12/13 09:51:17;;;;;;;52.97;27.75;;;-0.60;99.90;;;;;;5072608;28;20419;-82
2022/12/13 09:54:04;;;;;;;51.88;27.17;;;-0.50;99.90;;;;;;5075038;28;20036;-81
2022/12/13 09:56:52;;;;;;;52.90;27.00;;;-0.40;99.90;;;;;;5090760;28;20046;-80
2022/12/13 09:59:40;;;;;;;44.97;23.42;;;-0.30;99.90;;;;;;5072096;28;20060;-80
2022/12/13 10:02:30;;;;;;;46.47;24.25;;;-0.20;99.90;;;;;;5058606;28;20380;-85
2022/12/13 10:05:21;;;;;;;57.70;26.67;;;-0.10;99.90;;;;;;5090338;28;20047;-86
2022/12/13 10:08:18;;;;;;;52.97;28.52;;;0.10;99.90;;;;;;5073071;28;20048;-79
2022/12/13 10:11:04;;;;;;;48.85;24.40;;;0.20;99.90;;;;;;5072465;28;20521;-80
2022/12/13 10:14:11;;;;;;;52.45;25.95;;;0.30;99.90;;;;;;5093318;28;20160;-84
2022/12/13 10:17:02;;;;;;;61.97;29.45;;;0.80;99.90;;;;;;5072378;28;20479;-83
2022/12/13 10:19:50;;;;;;;54.15;28.52;;;1.60;99.90;;;;;;5089984;28;20567;-82
2022/12/13 10:22:36;;;;;;;46.83;24.95;;;2.20;99.90;;;;;;5076485;28;20052;-85
2022/12/13 10:25:47;;;;;;;53.92;28.98;;;2.30;99.90;;;;;;5090497;28;20052;-77
2022/12/13 10:28:34;;;;;;;44.22;25.35;;;2.30;99.90;;;;;;5098120;28;20176;-80
2022/12/13 10:31:20;;;;;;;45.28;21.95;;;2.50;99.90;;;;;;5072438;28;20051;-82
2022/12/13 10:34:19;;;;;;;41.88;22.42;;;2.40;99.90;;;;;;5092742;28;20075;-81
2022/12/13 10:37:40;;;;;;;39.33;22.25;;;2.10;99.90;;;;;;5087634;28;20048;-83
2022/12/13 10:40:32;;;;;;;41.00;22.15;;;2.20;99.90;;;;;;4996235;28;20449;-83
2022/12/13 10:43:20;;;;;;;39.25;21.75;;;2.60;99.90;;;;;;5076047;28;20141;-83
2022/12/13 10:46:18;;;;;;;42.92;21.90;;;2.60;99.90;;;;;;5093307;28;20052;-81
2022/12/13 10:49:19;;;;;;;37.35;17.70;;;2.50;99.90;;;;;;5075062;28;20040;-82
2022/12/13 10:52:19;;;;;;;45.22;19.95;;;2.50;99.90;;;;;;5063406;28;20545;-80
2022/12/13 10:55:31;;;;;;;31.10;18.98;;;2.80;99.90;;;;;;5061683;28;20056;-82
2022/12/13 10:58:18;;;;;;;33.15;17.65;;;3.10;99.90;;;;;;5093759;28;20244;-78
2022/12/13 11:01:20;;;;;;;42.55;20.77;;;3.30;99.90;;;;;;5075480;28;20381;-79
2022/12/13 11:04:28;;;;;;;34.00;18.02;;;3.30;99.90;;;;;;5080054;28;20059;-80
2022/12/13 11:07:41;;;;;;;30.10;17.52;;;3.70;99.90;;;;;;5077237;28;20508;-80
2022/12/13 11:10:29;;;;;;;36.47;18.58;;;4.20;99.90;;;;;;5092859;28;20048;-80
2022/12/13 11:13:39;;;;;;;39.75;17.65;;;4.40;99.90;;;;;;5092735;28;20052;-81
2022/12/13 11:16:39;;;;;;;25.13;16.83;;;5.10;99.90;;;;;;5093180;28;20040;-80
2022/12/13 11:19:36;;;;;;;30.92;16.35;;;5.50;99.90;;;;;;5093947;28;20048;-84
2022/12/13 11:22:33;;;;;;;27.75;16.15;;;5.50;99.90;;;;;;5078126;28;20128;-82
2022/12/13 11:25:23;;;;;;;29.15;15.85;;;5.40;99.90;;;;;;5074331;28;20062;-82
2022/12/13 11:28:34;;;;;;;27.92;16.05;;;5.60;99.90;;;;;;5093671;28;20090;-81
2022/12/13 11:31:52;;;;;;;30.23;16.83;;;6.30;99.90;;;;;;5075275;28;20074;-82
2022/12/13 11:34:54;;;;;;;30.63;16.23;;;6.70;99.90;;;;;;5071525;28;20069;-82
2022/12/13 11:38:11;;;;;;;29.05;15.85;;;7.10;99.90;;;;;;5094712;28;20043;-80
2022/12/13 11:41:17;;;;;;;28.42;15.98;;;7.20;99.90;;;;;;5102385;28;20040;-77
2022/12/13 11:44:16;;;;;;;29.02;16.17;;;7.50;99.90;;;;;;5073945;28;20051;-79
2022/12/13 11:47:06;;;;;;;25.98;15.88;;;7.70;99.90;;;;;;5061108;28;20056;-83
2022/12/13 11:49:53;;;;;;;29.60;16.40;;;7.40;99.90;;;;;;5074440;28;20052;-81
2022/12/13 11:52:49;;;;;;;28.70;16.42;;;7.00;99.90;;;;;;5091752;28;20054;-80
2022/12/13 11:55:45;;;;;;;29.00;15.93;;;7.00;99.90;;;;;;5075340;28;20093;-83
2022/12/13 11:58:44;;;;;;;31.33;17.85;;;6.70;99.90;;;;;;5099837;28;20052;-77
2022/12/13 12:01:48;;;;;;;33.42;16.17;;;6.40;99.90;;;;;;5091789;28;20507;-77
2022/12/13 12:04:40;;;;;;;26.38;14.45;;;6.20;99.90;;;;;;5073371;28;20052;-80
2022/12/13 12:07:29;;;;;;;24.98;14.80;;;6.50;99.90;;;;;;5092632;28;20058;-82
2022/12/13 12:10:39;;;;;;;23.40;15.45;;;6.90;99.90;;;;;;5074073;28;20140;-83
2022/12/13 12:13:32;;;;;;;25.27;14.52;;;7.20;99.90;;;;;;5074710;28;20052;-79
2022/12/13 12:16:25;;;;;;;27.67;16.85;;;7.90;99.90;;;;;;5082334;28;20465;-81
2022/12/13 12:19:14;;;;;;;26.77;13.82;;;8.80;99.90;;;;;;5091913;28;20133;-78
2022/12/13 12:22:18;;;;;;;22.38;13.45;;;9.90;99.90;;;;;;5073614;28;20382;-80
2022/12/13 12:25:35;;;;;;;21.23;12.70;;;10.80;99.70;;;;;;5084850;28;20105;-86
2022/12/13 12:28:40;;;;;;;21.75;12.95;;;11.50;96.80;;;;;;5093363;28;20487;-79
2022/12/13 12:31:44;;;;;;;25.48;14.70;;;11.40;97.70;;;;;;5076707;28;20051;-83
2022/12/13 12:35:01;;;;;;;20.88;13.13;;;11.80;97.10;;;;;;5093220;28;20063;-82
2022/12/13 12:37:48;;;;;;;22.55;12.18;;;12.30;96.70;;;;;;5099303;28;20076;-82
2022/12/13 12:41:14;;;;;;;20.80;13.13;;;12.30;96.40;;;;;;5091319;28;20051;-83
2022/12/13 12:44:12;;;;;;;20.60;11.32;;;12.30;93.20;;;;;;5058143;28;20048;-82
2022/12/13 12:47:23;;;;;;;20.67;12.02;;;12.60;94.70;;;;;;5091988;28;20098;-79
2022/12/13 12:50:24;;;;;;;17.55;11.00;;;12.60;93.40;;;;;;5073663;28;20457;-81
2022/12/13 12:53:14;;;;;;;18.20;10.90;;;12.50;93.30;;;;;;5091543;28;20091;-79
2022/12/13 12:56:13;;;;;;;18.70;11.57;;;12.50;92.60;;;;;;5096922;28;20036;-84
2022/12/13 12:59:19;;;;;;;17.77;11.18;;;11.80;93.80;;;;;;5075543;28;20091;-85
2022/12/13 13:02:20;;;;;;;22.67;12.65;;;11.20;92.90;;;;;;5076645;28;20132;-85
2022/12/13 13:05:20;;;;;;;20.58;11.43;;;10.50;94.20;;;;;;5074209;28;20097;-82
2022/12/13 13:08:15;;;;;;;19.02;10.65;;;9.70;95.30;;;;;;5094045;28;20403;-85
2022/12/13 13:11:04;;;;;;;18.23;10.87;;;9.00;96.10;;;;;;5093377;28;20101;-82
2022/12/13 13:14:26;;;;;;;19.75;11.38;;;8.40;97.70;;;;;;5080924;28;20297;-77
2022/12/13 13:17:15;;;;;;;19.83;11.60;;;7.40;98.40;;;;;;5094412;28;20060;-80
2022/12/13 13:20:13;;;;;;;22.17;11.63;;;6.70;99.90;;;;;;5096803;28;20056;-84
2022/12/13 13:23:14;;;;;;;21.13;11.52;;;6.00;99.90;;;;;;5100883;28;20070;-85
2022/12/13 13:26:00;;;;;;;20.90;11.85;;;5.50;99.90;;;;;;5094581;28;20135;-81
2022/12/13 13:28:47;;;;;;;19.55;10.63;;;5.10;99.90;;;;;;5060453;28;20153;-81
2022/12/13 13:31:58;;;;;;;21.70;11.70;;;4.90;99.90;;;;;;5098317;28;20051;-84
2022/12/13 13:34:46;;;;;;;20.30;10.60;;;4.60;99.90;;;;;;5074759;28;20047;-86
2022/12/13 13:37:59;;;;;;;19.00;10.13;;;4.40;99.90;;;;;;5075172;28;20052;-86
2022/12/13 13:40:45;;;;;;;17.42;10.63;;;4.30;99.90;;;;;;5060619;28;20101;-83
2022/12/13 13:43:32;;;;;;;19.73;10.93;;;4.40;99.90;;;;;;5074930;28;20101;-85
2022/12/13 13:46:18;;;;;;;16.92;9.80;;;4.80;99.90;;;;;;5093339;28;20050;-83
2022/12/13 13:49:10;;;;;;;17.90;9.88;;;5.10;99.90;;;;;;5073121;28;20097;-85
2022/12/13 13:52:25;;;;;;;16.00;9.77;;;5.90;99.90;;;;;;5096383;28;20051;-78
2022/12/13 13:55:36;;;;;;;17.70;9.20;;;6.40;99.90;;;;;;5072433;28;20056;-82
2022/12/13 13:58:50;;;;;;;18.38;9.82;;;6.40;99.90;;;;;;5076357;28;20127;-86
2022/12/13 14:02:05;;;;;;;18.30;9.45;;;6.20;99.90;;;;;;5072492;28;20138;-87
2022/12/13 14:05:16;;;;;;;17.88;10.20;;;5.80;99.90;;;;;;5095245;28;20419;-81
2022/12/13 14:08:27;;;;;;;15.30;9.35;;;5.00;99.90;;;;;;5072076;28;20043;-86
2022/12/13 14:11:46;;;;;;;17.65;9.73;;;4.50;99.90;;;;;;5072483;28;20080;-77
2022/12/13 14:14:57;;;;;;;19.17;10.23;;;4.20;99.90;;;;;;5072537;28;20429;-83
2022/12/13 14:17:55;;;;;;;18.90;10.10;;;3.90;99.90;;;;;;5072307;28;20058;-78
2022/12/13 14:21:13;;;;;;;18.08;10.10;;;4.10;99.90;;;;;;5096497;28;20059;-82
2022/12/13 14:24:27;;;;;;;17.65;10.15;;;4.10;99.90;;;;;;5089249;28;20051;-80
2022/12/13 14:27:52;;;;;;;17.52;9.73;;;4.10;99.90;;;;;;5089541;28;20067;-86
2022/12/13 14:30:43;;;;;;;20.55;11.38;;;3.70;99.90;;;;;;5071138;28;20052;-86
2022/12/13 14:33:29;;;;;;;20.10;10.23;;;3.30;99.90;;;;;;5090109;28;20052;-80
2022/12/13 14:36:17;;;;;;;20.15;12.27;;;3.10;99.90;;;;;;5063434;28;20074;-82
2022/12/13 14:39:15;;;;;;;20.85;11.35;;;2.80;99.90;;;;;;5082579;28;20036;-87
2022/12/13 14:42:24;;;;;;;19.90;10.98;;;2.50;99.90;;;;;;5072243;28;20113;-87